sensor_id;sensor_type;location;lat;lon;timestamp;pressure;altitude;pressure_sealevel;temperature;humidity
75775;BME280;64505;51.458;7.556;2023-01-24T00:01:16;101810.91;;;1.59;85.39
75775;BME280;64505;51.458;7.556;2023-01-24T00:03:17;101815.16;;;1.60;85.21
75775;BME280;64505;51.458;7.556;2023-01-24T00:05:19;101810.69;;;1.62;84.88
75775;BME280;64505;51.458;7.556;2023-01-24T00:07:21;101816.97;;;1.59;84.47
75775;BME280;64505;51.458;7.556;2023-01-24T00:09:22;101814.56;;;1.56;84.50
75775;BME280;64505;51.458;7.556;2023-01-24T00:11:24;101814.22;;;1.61;84.81
75775;BME280;64505;51.458;7.556;2023-01-24T00:13:25;101811.13;;;1.56;84.93
75775;BME280;64505;51.458;7.556;2023-01-24T00:15:27;101807.34;;;1.60;85.13
75775;BME280;64505;51.458;7.556;2023-01-24T00:17:28;101806.41;;;1.61;84.81
75775;BME280;64505;51.458;7.556;2023-01-24T00:19:30;101813.53;;;1.59;84.12
75775;BME280;64505;51.458;7.556;2023-01-24T00:21:31;101808.41;;;1.57;84.53
75775;BME280;64505;51.458;7.556;2023-01-24T00:23:33;101810.09;;;1.58;84.52
75775;BME280;64505;51.458;7.556;2023-01-24T00:25:34;101815.53;;;1.55;84.14
75775;BME280;64505;51.458;7.556;2023-01-24T00:27:36;101809.75;;;1.63;84.99
75775;BME280;64505;51.458;7.556;2023-01-24T00:29:37;101813.28;;;1.62;84.90
75775;BME280;64505;51.458;7.556;2023-01-24T00:31:38;101810.09;;;1.58;84.17
75775;BME280;64505;51.458;7.556;2023-01-24T00:33:40;101814.69;;;1.55;84.39
75775;BME280;64505;51.458;7.556;2023-01-24T00:35:42;101807.91;;;1.52;84.00
75775;BME280;64505;51.458;7.556;2023-01-24T00:37:43;101812.09;;;1.55;84.08
75775;BME280;64505;51.458;7.556;2023-01-24T00:39:44;101809.72;;;1.52;84.22
75775;BME280;64505;51.458;7.556;2023-01-24T00:41:46;101815.53;;;1.55;84.23
75775;BME280;64505;51.458;7.556;2023-01-24T00:43:47;101808.50;;;1.56;84.40
75775;BME280;64505;51.458;7.556;2023-01-24T00:45:49;101812.78;;;1.57;83.99
75775;BME280;64505;51.458;7.556;2023-01-24T00:47:50;101822.19;;;1.59;84.33
75775;BME280;64505;51.458;7.556;2023-01-24T00:49:52;101817.06;;;1.58;84.30
75775;BME280;64505;51.458;7.556;2023-01-24T00:51:53;101821.34;;;1.59;84.00
75775;BME280;64505;51.458;7.556;2023-01-24T00:53:55;101824.28;;;1.54;84.25
75775;BME280;64505;51.458;7.556;2023-01-24T00:55:56;101809.72;;;1.52;83.72
75775;BME280;64505;51.458;7.556;2023-01-24T00:57:58;101811.13;;;1.56;83.81
75775;BME280;64505;51.458;7.556;2023-01-24T00:59:59;101812.09;;;1.55;83.79
75775;BME280;64505;51.458;7.556;2023-01-24T01:02:01;101808.75;;;1.53;83.38
75775;BME280;64505;51.458;7.556;2023-01-24T01:04:03;101805.31;;;1.52;83.77
75775;BME280;64505;51.458;7.556;2023-01-24T01:06:13;101810.31;;;1.55;83.61
75775;BME280;64505;51.458;7.556;2023-01-24T01:08:14;101796.69;;;1.52;83.39
75775;BME280;64505;51.458;7.556;2023-01-24T01:10:17;101801.38;;;1.46;83.66
75775;BME280;64505;51.458;7.556;2023-01-24T01:12:18;101799.28;;;1.52;83.64
75775;BME280;64505;51.458;7.556;2023-01-24T01:14:19;101809.72;;;1.52;83.88
75775;BME280;64505;51.458;7.556;2023-01-24T01:16:21;101801.53;;;1.56;83.88
75775;BME280;64505;51.458;7.556;2023-01-24T01:18:23;101797.47;;;1.52;83.27
75775;BME280;64505;51.458;7.556;2023-01-24T01:20:25;101805.19;;;1.54;83.72
75775;BME280;64505;51.458;7.556;2023-01-24T01:22:28;101808.50;;;1.56;83.73
75775;BME280;64505;51.458;7.556;2023-01-24T01:24:29;101809.59;;;1.53;82.94
75775;BME280;64505;51.458;7.556;2023-01-24T01:26:31;101812.78;;;1.57;83.29
75775;BME280;64505;51.458;7.556;2023-01-24T01:28:33;101819.91;;;1.55;83.10
75775;BME280;64505;51.458;7.556;2023-01-24T01:30:34;101820.25;;;1.50;82.36
75775;BME280;64505;51.458;7.556;2023-01-24T01:32:36;101822.84;;;1.50;82.62
75775;BME280;64505;51.458;7.556;2023-01-24T01:34:37;101822.94;;;1.48;82.11
75775;BME280;64505;51.458;7.556;2023-01-24T01:36:38;101822.63;;;1.53;82.97
75775;BME280;64505;51.458;7.556;2023-01-24T01:38:40;101829.00;;;1.49;82.28
75775;BME280;64505;51.458;7.556;2023-01-24T01:40:42;101829.97;;;1.48;82.76
75775;BME280;64505;51.458;7.556;2023-01-24T01:44:49;101825.34;;;1.52;83.19
75775;BME280;64505;51.458;7.556;2023-01-24T01:46:51;101837.56;;;1.51;83.16
75775;BME280;64505;51.458;7.556;2023-01-24T01:48:55;101835.88;;;1.50;82.35
75775;BME280;64505;51.458;7.556;2023-01-24T01:51:06;101825.56;;;1.48;82.82
75775;BME280;64505;51.458;7.556;2023-01-24T01:53:14;101820.84;;;1.54;82.83
75775;BME280;64505;51.458;7.556;2023-01-24T01:55:18;101823.06;;;1.47;83.00
75775;BME280;64505;51.458;7.556;2023-01-24T01:57:23;101823.69;;;1.51;82.75
75775;BME280;64505;51.458;7.556;2023-01-24T01:59:30;101833.28;;;1.50;82.71
75775;BME280;64505;51.458;7.556;2023-01-24T02:01:33;101819.63;;;1.46;82.50
75775;BME280;64505;51.458;7.556;2023-01-24T02:03:38;101825.22;;;1.53;82.58
75775;BME280;64505;51.458;7.556;2023-01-24T02:05:41;101828.66;;;1.54;82.90
75775;BME280;64505;51.458;7.556;2023-01-24T02:08:01;101821.19;;;1.49;83.23
75775;BME280;64505;51.458;7.556;2023-01-24T02:10:04;101822.25;;;1.46;82.50
75775;BME280;64505;51.458;7.556;2023-01-24T02:12:25;101818.56;;;1.49;82.69
75775;BME280;64505;51.458;7.556;2023-01-24T02:14:28;101820.69;;;1.44;82.21
75775;BME280;64505;51.458;7.556;2023-01-24T02:16:49;101821.91;;;1.51;82.62
75775;BME280;64505;51.458;7.556;2023-01-24T02:18:50;101815.13;;;1.48;82.21
75775;BME280;64505;51.458;7.556;2023-01-24T02:20:58;101821.53;;;1.44;82.51
75775;BME280;64505;51.458;7.556;2023-01-24T02:25:24;101815.59;;;1.42;82.28
75775;BME280;64505;51.458;7.556;2023-01-24T02:27:27;101813.59;;;1.46;82.84
75775;BME280;64505;51.458;7.556;2023-01-24T02:32:03;101804.31;;;1.42;82.54
75775;BME280;64505;51.458;7.556;2023-01-24T02:34:06;101812.97;;;1.42;82.51
75775;BME280;64505;51.458;7.556;2023-01-24T02:38:24;101804.00;;;1.46;82.71
75775;BME280;64505;51.458;7.556;2023-01-24T02:40:28;101798.28;;;1.41;82.41
75775;BME280;64505;51.458;7.556;2023-01-24T02:42:35;101811.91;;;1.45;82.96
75775;BME280;64505;51.458;7.556;2023-01-24T02:44:43;101803.16;;;1.46;82.86
75775;BME280;64505;51.458;7.556;2023-01-24T02:46:46;101801.38;;;1.46;82.38
75775;BME280;64505;51.458;7.556;2023-01-24T02:48:50;101799.72;;;1.45;83.00
75775;BME280;64505;51.458;7.556;2023-01-24T02:50:52;101805.75;;;1.46;82.99
75775;BME280;64505;51.458;7.556;2023-01-24T02:53:12;101799.84;;;1.44;83.07
75775;BME280;64505;51.458;7.556;2023-01-24T02:55:32;101793.66;;;1.45;83.04
75775;BME280;64505;51.458;7.556;2023-01-24T02:57:33;101789.53;;;1.42;82.87
75775;BME280;64505;51.458;7.556;2023-01-24T02:59:53;101788.69;;;1.42;82.78
75775;BME280;64505;51.458;7.556;2023-01-24T03:01:55;101788.59;;;1.43;82.71
75775;BME280;64505;51.458;7.556;2023-01-24T03:03:57;101793.91;;;1.42;82.49
75775;BME280;64505;51.458;7.556;2023-01-24T03:05:59;101790.44;;;1.41;82.33
75775;BME280;64505;51.458;7.556;2023-01-24T03:08:01;101789.75;;;1.39;82.85
75775;BME280;64505;51.458;7.556;2023-01-24T03:10:03;101787.84;;;1.41;83.25
75775;BME280;64505;51.458;7.556;2023-01-24T03:12:06;101793.06;;;1.41;82.62
75775;BME280;64505;51.458;7.556;2023-01-24T03:14:27;101788.69;;;1.42;82.48
75775;BME280;64505;51.458;7.556;2023-01-24T03:16:47;101791.19;;;1.43;83.09
75775;BME280;64505;51.458;7.556;2023-01-24T03:19:07;101791.06;;;1.45;82.37
75775;BME280;64505;51.458;7.556;2023-01-24T03:21:27;101786.31;;;1.39;82.14
75775;BME280;64505;51.458;7.556;2023-01-24T03:23:47;101785.38;;;1.40;82.23
75775;BME280;64505;51.458;7.556;2023-01-24T03:26:07;101784.44;;;1.41;82.12
75775;BME280;64505;51.458;7.556;2023-01-24T03:28:27;101789.66;;;1.41;82.35
75775;BME280;64505;51.458;7.556;2023-01-24T03:30:48;101793.91;;;1.42;82.44
75775;BME280;64505;51.458;7.556;2023-01-24T03:33:08;101784.53;;;1.39;82.46
75775;BME280;64505;51.458;7.556;2023-01-24T03:35:28;101790.44;;;1.41;82.69
75775;BME280;64505;51.458;7.556;2023-01-24T03:37:29;101788.69;;;1.42;83.00
75775;BME280;64505;51.458;7.556;2023-01-24T03:39:49;101786.53;;;1.36;82.72
75775;BME280;64505;51.458;7.556;2023-01-24T03:41:59;101790.06;;;1.35;83.29
75775;BME280;64505;51.458;7.556;2023-01-24T03:44:01;101787.25;;;1.38;82.99
75775;BME280;64505;51.458;7.556;2023-01-24T03:46:02;101786.44;;;1.37;82.97
75775;BME280;64505;51.458;7.556;2023-01-24T03:48:07;101782.38;;;1.33;83.22
75775;BME280;64505;51.458;7.556;2023-01-24T03:50:15;101791.75;;;1.36;83.48
75775;BME280;64505;51.458;7.556;2023-01-24T03:52:34;101789.25;;;1.34;82.75
75775;BME280;64505;51.458;7.556;2023-01-24T03:54:36;101794.25;;;1.37;83.49
75775;BME280;64505;51.458;7.556;2023-01-24T03:56:37;101791.53;;;1.39;83.86
75775;BME280;64505;51.458;7.556;2023-01-24T03:58:39;101790.06;;;1.35;83.06
75775;BME280;64505;51.458;7.556;2023-01-24T04:00:41;101791.97;;;1.33;82.82
75775;BME280;64505;51.458;7.556;2023-01-24T04:02:42;101782.50;;;1.32;83.58
75775;BME280;64505;51.458;7.556;2023-01-24T04:04:44;101779.50;;;1.25;83.15
75775;BME280;64505;51.458;7.556;2023-01-24T04:07:04;101782.59;;;1.30;83.29
75775;BME280;64505;51.458;7.556;2023-01-24T04:09:25;101774.91;;;1.29;82.32
75775;BME280;64505;51.458;7.556;2023-01-24T04:11:26;101779.19;;;1.30;83.13
75775;BME280;64505;51.458;7.556;2023-01-24T04:13:27;101775.00;;;1.27;83.31
75775;BME280;64505;51.458;7.556;2023-01-24T04:15:31;101772.53;;;1.26;83.20
75775;BME280;64505;51.458;7.556;2023-01-24T04:17:33;101778.44;;;1.28;83.02
75775;BME280;64505;51.458;7.556;2023-01-24T04:19:35;101774.78;;;1.30;82.48
75775;BME280;64505;51.458;7.556;2023-01-24T04:21:36;101779.38;;;1.27;82.95
75775;BME280;64505;51.458;7.556;2023-01-24T04:24:01;101775.69;;;1.18;82.80
75775;BME280;64505;51.458;7.556;2023-01-24T04:26:03;101773.09;;;1.18;83.43
75775;BME280;64505;51.458;7.556;2023-01-24T04:28:05;101774.53;;;1.22;83.29
75775;BME280;64505;51.458;7.556;2023-01-24T04:30:08;101774.63;;;1.21;83.63
75775;BME280;64505;51.458;7.556;2023-01-24T04:32:10;101768.72;;;1.19;83.42
75775;BME280;64505;51.458;7.556;2023-01-24T04:34:12;101772.84;;;1.21;83.43
75775;BME280;64505;51.458;7.556;2023-01-24T04:36:13;101776.16;;;1.23;82.77
75775;BME280;64505;51.458;7.556;2023-01-24T04:38:15;101774.53;;;1.22;83.21
75775;BME280;64505;51.458;7.556;2023-01-24T04:40:16;101780.66;;;1.21;83.02
75775;BME280;64505;51.458;7.556;2023-01-24T04:42:18;101777.22;;;1.21;83.47
75775;BME280;64505;51.458;7.556;2023-01-24T04:44:19;101776.28;;;1.22;83.14
75775;BME280;64505;51.458;7.556;2023-01-24T04:46:21;101778.78;;;1.23;83.41
75775;BME280;64505;51.458;7.556;2023-01-24T04:48:22;101777.22;;;1.21;82.97
75775;BME280;64505;51.458;7.556;2023-01-24T04:50:24;101782.22;;;1.24;83.42
75775;BME280;64505;51.458;7.556;2023-01-24T04:52:25;101785.03;;;1.21;82.89
75775;BME280;64505;51.458;7.556;2023-01-24T04:54:29;101785.97;;;1.20;83.54
75775;BME280;64505;51.458;7.556;2023-01-24T04:56:30;101789.31;;;1.22;83.39
75775;BME280;64505;51.458;7.556;2023-01-24T04:58:33;101786.59;;;1.23;83.35
75775;BME280;64505;51.458;7.556;2023-01-24T05:00:39;101786.72;;;1.22;83.04
75775;BME280;64505;51.458;7.556;2023-01-24T05:02:41;101792.75;;;1.22;83.10
75775;BME280;64505;51.458;7.556;2023-01-24T05:04:42;101791.00;;;1.23;83.21
75775;BME280;64505;51.458;7.556;2023-01-24T05:06:45;101790.88;;;1.24;83.32
75775;BME280;64505;51.458;7.556;2023-01-24T05:08:46;101796.63;;;1.17;83.58
75775;BME280;64505;51.458;7.556;2023-01-24T05:10:48;101794.53;;;1.22;83.16
75775;BME280;64505;51.458;7.556;2023-01-24T05:12:49;101790.25;;;1.21;83.45
75775;BME280;64505;51.458;7.556;2023-01-24T05:14:51;101790.59;;;1.16;83.15
75775;BME280;64505;51.458;7.556;2023-01-24T05:16:52;101791.66;;;1.14;83.22
75775;BME280;64505;51.458;7.556;2023-01-24T05:18:54;101794.63;;;1.20;83.32
75775;BME280;64505;51.458;7.556;2023-01-24T05:21:06;101797.59;;;1.16;83.02
75775;BME280;64505;51.458;7.556;2023-01-24T05:23:08;101797.84;;;1.24;83.61
75775;BME280;64505;51.458;7.556;2023-01-24T05:25:09;101789.31;;;1.22;82.96
75775;BME280;64505;51.458;7.556;2023-01-24T05:27:11;101790.47;;;1.18;83.28
75775;BME280;64505;51.458;7.556;2023-01-24T05:29:12;101790.47;;;1.18;82.90
75775;BME280;64505;51.458;7.556;2023-01-24T05:31:14;101797.97;;;1.22;83.64
75775;BME280;64505;51.458;7.556;2023-01-24T05:33:16;101799.00;;;1.20;83.13
75775;BME280;64505;51.458;7.556;2023-01-24T05:35:17;101794.63;;;1.20;83.50
75775;BME280;64505;51.458;7.556;2023-01-24T05:37:19;101790.59;;;1.16;83.26
75775;BME280;64505;51.458;7.556;2023-01-24T05:39:20;101800.91;;;1.18;83.17
75775;BME280;64505;51.458;7.556;2023-01-24T05:41:22;101807.56;;;1.22;83.18
75775;BME280;64505;51.458;7.556;2023-01-24T05:43:23;101804.69;;;1.14;83.03
75775;BME280;64505;51.458;7.556;2023-01-24T05:45:25;101810.25;;;1.20;82.85
75775;BME280;64505;51.458;7.556;2023-01-24T05:47:26;101810.63;;;1.16;82.94
75775;BME280;64505;51.458;7.556;2023-01-24T05:49:28;101806.97;;;1.18;83.16
75775;BME280;64505;51.458;7.556;2023-01-24T05:51:29;101808.94;;;1.15;82.99
75775;BME280;64505;51.458;7.556;2023-01-24T05:53:33;101814.63;;;1.20;83.42
75775;BME280;64505;51.458;7.556;2023-01-24T05:55:34;101813.94;;;1.18;83.68
75775;BME280;64505;51.458;7.556;2023-01-24T05:57:36;101807.19;;;1.15;83.48
75775;BME280;64505;51.458;7.556;2023-01-24T05:59:38;101808.94;;;1.15;83.24
75775;BME280;64505;51.458;7.556;2023-01-24T06:01:40;101811.44;;;1.16;83.34
75775;BME280;64505;51.458;7.556;2023-01-24T06:03:42;101809.97;;;1.12;82.82
75775;BME280;64505;51.458;7.556;2023-01-24T06:05:48;101815.41;;;1.09;83.34
75775;BME280;64505;51.458;7.556;2023-01-24T06:07:50;101810.09;;;1.11;82.68
75775;BME280;64505;51.458;7.556;2023-01-24T06:09:52;101819.69;;;1.10;82.77
75775;BME280;64505;51.458;7.556;2023-01-24T06:11:53;101824.38;;;1.05;83.56
75775;BME280;64505;51.458;7.556;2023-01-24T06:13:55;101820.53;;;1.11;83.18
75775;BME280;64505;51.458;7.556;2023-01-24T06:16:01;101818.44;;;1.16;83.35
75775;BME280;64505;51.458;7.556;2023-01-24T06:18:03;101833.94;;;1.17;83.27
75775;BME280;64505;51.458;7.556;2023-01-24T06:20:05;101834.25;;;1.13;83.15
75775;BME280;64505;51.458;7.556;2023-01-24T06:22:30;101837.63;;;1.15;83.32
75775;BME280;64505;51.458;7.556;2023-01-24T06:24:33;101841.06;;;1.15;83.48
75775;BME280;64505;51.458;7.556;2023-01-24T06:26:35;101840.09;;;1.16;83.56
75775;BME280;64505;51.458;7.556;2023-01-24T06:28:38;101845.19;;;1.18;83.44
75775;BME280;64505;51.458;7.556;2023-01-24T06:30:41;101851.34;;;1.17;83.59
75775;BME280;64505;51.458;7.556;2023-01-24T06:35:32;101855.84;;;1.15;83.32
75775;BME280;64505;51.458;7.556;2023-01-24T06:37:49;101849.56;;;1.17;83.73
75775;BME280;64505;51.458;7.556;2023-01-24T06:39:52;101851.97;;;1.20;83.28
75775;BME280;64505;51.458;7.556;2023-01-24T06:41:54;101856.78;;;1.14;82.99
75775;BME280;64505;51.458;7.556;2023-01-24T06:43:56;101858.22;;;1.18;83.15
75775;BME280;64505;51.458;7.556;2023-01-24T06:45:57;101864.50;;;1.15;83.27
75775;BME280;64505;51.458;7.556;2023-01-24T06:47:59;101866.16;;;1.16;83.26
75775;BME280;64505;51.458;7.556;2023-01-24T06:50:04;101874.19;;;1.13;82.97
75775;BME280;64505;51.458;7.556;2023-01-24T06:52:11;101877.53;;;1.15;83.09
75775;BME280;64505;51.458;7.556;2023-01-24T06:54:12;101880.22;;;1.14;82.90
75775;BME280;64505;51.458;7.556;2023-01-24T06:56:14;101876.38;;;1.19;82.79
75775;BME280;64505;51.458;7.556;2023-01-24T06:58:15;101870.19;;;1.20;82.87
75775;BME280;64505;51.458;7.556;2023-01-24T07:00:17;101869.50;;;1.18;83.27
75775;BME280;64505;51.458;7.556;2023-01-24T07:02:19;101878.16;;;1.19;83.15
75775;BME280;64505;51.458;7.556;2023-01-24T07:04:20;101880.63;;;1.20;83.56
75775;BME280;64505;51.458;7.556;2023-01-24T07:06:22;101883.44;;;1.17;83.30
75775;BME280;64505;51.458;7.556;2023-01-24T07:08:24;101887.50;;;1.21;83.47
75775;BME280;64505;51.458;7.556;2023-01-24T07:10:26;101893.03;;;1.17;82.83
75775;BME280;64505;51.458;7.556;2023-01-24T07:12:27;101898.38;;;1.15;82.90
75775;BME280;64505;51.458;7.556;2023-01-24T07:14:29;101883.44;;;1.17;83.36
75775;BME280;64505;51.458;7.556;2023-01-24T07:16:30;101894.00;;;1.16;83.19
75775;BME280;64505;51.458;7.556;2023-01-24T07:18:32;101884.28;;;1.18;83.77
75775;BME280;64505;51.458;7.556;2023-01-24T07:20:34;101881.06;;;1.14;82.90
75775;BME280;64505;51.458;7.556;2023-01-24T07:22:37;101884.28;;;1.18;83.32
75775;BME280;64505;51.458;7.556;2023-01-24T07:24:38;101886.91;;;1.18;83.39
75775;BME280;64505;51.458;7.556;2023-01-24T07:26:40;101885.34;;;1.15;83.60
75775;BME280;64505;51.458;7.556;2023-01-24T07:28:42;101882.53;;;1.18;83.56
75775;BME280;64505;51.458;7.556;2023-01-24T07:30:44;101887.81;;;1.17;83.39
75775;BME280;64505;51.458;7.556;2023-01-24T07:32:47;101892.19;;;1.16;83.40
75775;BME280;64505;51.458;7.556;2023-01-24T07:34:49;101882.19;;;1.23;83.15
75775;BME280;64505;51.458;7.556;2023-01-24T07:36:50;101890.13;;;1.21;82.88
75775;BME280;64505;51.458;7.556;2023-01-24T07:38:56;101893.44;;;1.23;83.04
75775;BME280;64505;51.458;7.556;2023-01-24T07:40:57;101895.22;;;1.23;83.26
75775;BME280;64505;51.458;7.556;2023-01-24T07:43:00;101897.31;;;1.18;82.99
75775;BME280;64505;51.458;7.556;2023-01-24T07:45:02;101890.94;;;1.22;82.85
75775;BME280;64505;51.458;7.556;2023-01-24T07:47:03;101899.47;;;1.24;83.31
75775;BME280;64505;51.458;7.556;2023-01-24T07:49:05;101898.75;;;1.22;83.16
75775;BME280;64505;51.458;7.556;2023-01-24T07:51:06;101903.53;;;1.28;83.09
75775;BME280;64505;51.458;7.556;2023-01-24T07:53:08;101904.38;;;1.28;83.07
75775;BME280;64505;51.458;7.556;2023-01-24T07:55:10;101905.81;;;1.32;82.67
75775;BME280;64505;51.458;7.556;2023-01-24T07:57:11;101907.50;;;1.33;83.34
75775;BME280;64505;51.458;7.556;2023-01-24T07:59:12;101913.63;;;1.32;82.81
75775;BME280;64505;51.458;7.556;2023-01-24T08:01:19;101918.84;;;1.32;82.97
75775;BME280;64505;51.458;7.556;2023-01-24T08:03:21;101920.53;;;1.33;82.58
75775;BME280;64505;51.458;7.556;2023-01-24T08:05:22;101910.28;;;1.30;83.27
75775;BME280;64505;51.458;7.556;2023-01-24T08:07:24;101915.63;;;1.29;82.08
75775;BME280;64505;51.458;7.556;2023-01-24T08:09:25;101915.94;;;1.37;82.80
75775;BME280;64505;51.458;7.556;2023-01-24T08:11:27;101923.94;;;1.34;81.81
75775;BME280;64505;51.458;7.556;2023-01-24T08:13:29;101916.13;;;1.34;82.62
75775;BME280;64505;51.458;7.556;2023-01-24T08:15:31;101922.91;;;1.36;82.57
75775;BME280;64505;51.458;7.556;2023-01-24T08:17:35;101922.69;;;1.39;82.33
75775;BME280;64505;51.458;7.556;2023-01-24T08:19:36;101926.84;;;1.42;82.85
75775;BME280;64505;51.458;7.556;2023-01-24T08:21:57;101927.69;;;1.42;82.72
75775;BME280;64505;51.458;7.556;2023-01-24T08:23:59;101930.06;;;1.45;82.76
75775;BME280;64505;51.458;7.556;2023-01-24T08:26:01;101931.81;;;1.45;82.51
75775;BME280;64505;51.458;7.556;2023-01-24T08:28:03;101932.88;;;1.42;82.22
75775;BME280;64505;51.458;7.556;2023-01-24T08:30:05;101945.81;;;1.44;82.11
75775;BME280;64505;51.458;7.556;2023-01-24T08:32:06;101934.34;;;1.46;82.10
75775;BME280;64505;51.458;7.556;2023-01-24T08:34:09;101925.44;;;1.49;81.92
75775;BME280;64505;51.458;7.556;2023-01-24T08:36:11;101937.47;;;1.52;82.27
75775;BME280;64505;51.458;7.556;2023-01-24T08:38:14;101937.09;;;1.56;82.54
75775;BME280;64505;51.458;7.556;2023-01-24T08:40:16;101935.94;;;1.60;82.00
75775;BME280;64505;51.458;7.556;2023-01-24T08:42:17;101941.38;;;1.57;81.46
75775;BME280;64505;51.458;7.556;2023-01-24T08:44:19;101939.53;;;1.59;81.81
75775;BME280;64505;51.458;7.556;2023-01-24T08:46:20;101937.84;;;1.58;81.75
75775;BME280;64505;51.458;7.556;2023-01-24T08:48:22;101938.22;;;1.65;82.02
75775;BME280;64505;51.458;7.556;2023-01-24T08:50:23;101945.53;;;1.60;81.19
75775;BME280;64505;51.458;7.556;2023-01-24T08:52:25;101952.13;;;1.53;80.70
75775;BME280;64505;51.458;7.556;2023-01-24T08:54:33;101944.00;;;1.57;81.36
75775;BME280;64505;51.458;7.556;2023-01-24T08:56:36;101949.22;;;1.57;80.93
75775;BME280;64505;51.458;7.556;2023-01-24T08:58:37;101942.13;;;1.59;80.92
75775;BME280;64505;51.458;7.556;2023-01-24T09:00:39;101948.88;;;1.62;81.29
75775;BME280;64505;51.458;7.556;2023-01-24T09:02:40;101945.59;;;1.71;81.47
75775;BME280;64505;51.458;7.556;2023-01-24T09:04:42;101950.94;;;1.69;80.74
75775;BME280;64505;51.458;7.556;2023-01-24T09:06:44;101943.50;;;1.76;81.23
75775;BME280;64505;51.458;7.556;2023-01-24T09:08:45;101948.72;;;1.76;80.85
75775;BME280;64505;51.458;7.556;2023-01-24T09:10:46;101950.25;;;1.78;80.72
75775;BME280;64505;51.458;7.556;2023-01-24T09:12:48;101951.00;;;1.80;80.74
75775;BME280;64505;51.458;7.556;2023-01-24T09:14:49;101950.50;;;1.75;80.13
75775;BME280;64505;51.458;7.556;2023-01-24T09:16:51;101956.22;;;1.80;80.73
75775;BME280;64505;51.458;7.556;2023-01-24T09:18:53;101955.09;;;1.72;80.15
75775;BME280;64505;51.458;7.556;2023-01-24T09:20:59;101959.75;;;1.79;79.97
75775;BME280;64505;51.458;7.556;2023-01-24T09:23:08;101962.28;;;1.81;79.63
75775;BME280;64505;51.458;7.556;2023-01-24T09:25:10;101955.81;;;1.74;80.08
75775;BME280;64505;51.458;7.556;2023-01-24T09:27:12;101958.41;;;1.74;80.33
75775;BME280;64505;51.458;7.556;2023-01-24T09:29:13;101962.41;;;1.67;79.85
75775;BME280;64505;51.458;7.556;2023-01-24T09:31:15;101963.53;;;1.75;79.91
75775;BME280;64505;51.458;7.556;2023-01-24T09:33:17;101961.63;;;1.77;79.32
75775;BME280;64505;51.458;7.556;2023-01-24T09:35:19;101964.03;;;1.80;80.20
75775;BME280;64505;51.458;7.556;2023-01-24T09:37:21;101969.66;;;1.87;79.98
75775;BME280;64505;51.458;7.556;2023-01-24T09:39:23;101979.56;;;1.82;79.87
75775;BME280;64505;51.458;7.556;2023-01-24T09:41:48;101967.41;;;1.93;79.66
75775;BME280;64505;51.458;7.556;2023-01-24T09:44:50;101972.53;;;1.95;79.55
75775;BME280;64505;51.458;7.556;2023-01-24T09:47:01;101979.16;;;1.88;79.34
75775;BME280;64505;51.458;7.556;2023-01-24T09:49:15;101975.94;;;1.95;79.69
75775;BME280;64505;51.458;7.556;2023-01-24T09:51:21;101987.59;;;1.91;79.29
75775;BME280;64505;51.458;7.556;2023-01-24T09:53:46;101973.25;;;1.97;80.01
75775;BME280;64505;51.458;7.556;2023-01-24T09:55:50;101980.75;;;2.02;79.77
75775;BME280;64505;51.458;7.556;2023-01-24T09:58:04;101985.50;;;2.08;79.76
75775;BME280;64505;51.458;7.556;2023-01-24T10:00:16;101982.66;;;2.11;79.42
75775;BME280;64505;51.458;7.556;2023-01-24T10:02:20;101978.88;;;2.15;79.70
75775;BME280;64505;51.458;7.556;2023-01-24T10:04:30;101980.56;;;2.16;79.43
75775;BME280;64505;51.458;7.556;2023-01-24T10:06:33;101982.28;;;2.28;79.58
75775;BME280;64505;51.458;7.556;2023-01-24T10:10:53;101978.22;;;2.24;78.57
75775;BME280;64505;51.458;7.556;2023-01-24T10:17:46;101981.63;;;2.24;79.32
75775;BME280;64505;51.458;7.556;2023-01-24T10:22:13;101981.16;;;2.19;78.07
75775;BME280;64505;51.458;7.556;2023-01-24T10:24:23;101981.31;;;2.29;79.09
75775;BME280;64505;51.458;7.556;2023-01-24T10:28:35;101973.47;;;2.29;78.42
75775;BME280;64505;51.458;7.556;2023-01-24T10:30:42;101973.94;;;2.23;78.34
75775;BME280;64505;51.458;7.556;2023-01-24T10:32:50;101970.25;;;2.25;77.66
75775;BME280;64505;51.458;7.556;2023-01-24T10:35:11;101973.97;;;2.34;78.92
75775;BME280;64505;51.458;7.556;2023-01-24T10:37:28;101975.06;;;2.31;78.93
75775;BME280;64505;51.458;7.556;2023-01-24T10:39:32;101971.41;;;2.45;78.52
75775;BME280;64505;51.458;7.556;2023-01-24T10:41:34;101973.88;;;2.46;78.35
75775;BME280;64505;51.458;7.556;2023-01-24T10:43:36;101967.72;;;2.47;78.20
75775;BME280;64505;51.458;7.556;2023-01-24T10:45:50;101967.66;;;2.60;78.53
75775;BME280;64505;51.458;7.556;2023-01-24T10:48:04;101967.66;;;2.60;77.82
75775;BME280;64505;51.458;7.556;2023-01-24T10:50:17;101966.56;;;2.63;77.51
75775;BME280;64505;51.458;7.556;2023-01-24T10:52:20;101962.53;;;2.70;77.51
75775;BME280;64505;51.458;7.556;2023-01-24T10:54:22;101967.88;;;2.79;77.18
75775;BME280;64505;51.458;7.556;2023-01-24T10:56:24;101967.91;;;2.90;77.65
75775;BME280;64505;51.458;7.556;2023-01-24T10:58:27;101955.78;;;2.89;77.46
75775;BME280;64505;51.458;7.556;2023-01-24T11:00:40;101959.34;;;2.88;77.66
75775;BME280;64505;51.458;7.556;2023-01-24T11:02:47;101957.00;;;2.96;78.10
75775;BME280;64505;51.458;7.556;2023-01-24T11:05:04;101961.63;;;2.93;77.80
75775;BME280;64505;51.458;7.556;2023-01-24T11:07:06;101956.41;;;2.93;76.83
75775;BME280;64505;51.458;7.556;2023-01-24T11:11:22;101960.66;;;2.94;76.94
75775;BME280;64505;51.458;7.556;2023-01-24T11:13:28;101952.81;;;2.94;76.95
75775;BME280;64505;51.458;7.556;2023-01-24T11:15:32;101954.97;;;3.00;76.95
75775;BME280;64505;51.458;7.556;2023-01-24T11:17:38;101949.16;;;2.96;76.33
75775;BME280;64505;51.458;7.556;2023-01-24T11:19:40;101952.34;;;2.89;76.04
75775;BME280;64505;51.458;7.556;2023-01-24T11:21:51;101950.56;;;3.01;76.04
75775;BME280;64505;51.458;7.556;2023-01-24T11:26:23;101955.56;;;3.04;76.41
75775;BME280;64505;51.458;7.556;2023-01-24T11:28:30;101954.72;;;3.03;75.88